Hauptseite
METAR-TAF:

METAR-TAF

Flughäfen :

RAF Marham

Marham, England

Breite: 52-39N, Länge: 000-34E, Höhe: 23 m

Beobachtung

Neuester Wetterbericht von vor 30 Minuten, um 11:50 UTC
Wind 6 kt aus West/Nordwest
Temperatur 21°C
Luftfeuchtigkeit 56%
Luftdruck 1035 hPa
Sichtweite 10 km oder mehr
Aufgelockert bewölkt in der Höhe von 4000 ft
Durchbrochene Bewölkung in der Höhe von 5000 ft

METAR: EGYM 271150Z 30006KT 9999 SCT040 BKN050 21/12 Q1035 BLU

Zeit: 13:20 (12:20 UTC)

Prognose

Neuester Wetterbericht von vor 26 Stunden und 20 Minuten, um 10:00 UTC
Gültige Prognose vom 26 um 12 UTC bis 26 um 18 UTC
Wind 7 kt aus West/Nordwest
Sichtweite 10 km oder mehr
Leicht bewölkt in der Höhe von 4000 ft

TAF: EGYM 261000Z 2612/2618 29007KT 9999 FEW040

Wetterbeobachtungen und Prognosen von mehr als 4000 Flughäfen (METAR und TAF Bericht).

Die verfügbaren Stationen werden durch gelbe und rote Markierungen auf der Karte dargestellt.

Führen Sie die Maus auf sie, um den Namen der Station zu sehen.

Darauf klicken, um die Beobachtung von Wetterbeobachtungen und Prognosen zu sehen.

Um die Karte zu ändern : klicken Sie auf den grünen Tasten mit einem schwarzen Kreuz Zum Vergrößern, auf den grünen Button mit einem Gedankenstrich zu verkleinern, oder auf die grünen Pfeile für benachbarte Karten.


METAR-TAF: